TAF and METAR

No METAR available for Windhoek Hosea Kutako International Airport

TAF for Windhoek Hosea Kutako International Airport

TAF FYWH 011000Z 0112/0212 09005KT CAVOK BECMG 0112/0114 9999 SCT050 BECMG 0116/0118 17004KT NSC
Report created 1. apr 12:00

between 1. apr 14:00 - 2. apr 14:00

wind 5 knots from E (090°) Clear sky

becoming between 1. apr 14:00 - 1. apr 16:00

visibility > 10km scattered clouds (~50% cover) at 5000 feet

becoming between 1. apr 18:00 - 1. apr 20:00

wind 4 knots from S (170°) No significant clouds.
Windhoek Hosea Kutako International Airport in Namibia at 1700m

Latest 5 airports